sensor_id;sensor_type;location;lat;lon;timestamp;P1;durP1;ratioP1;P2;durP2;ratioP2
58974;SDS011;44751;52.236;5.178;2023-05-23T06:42:12;13.02;;;4.00;;
58974;SDS011;44751;52.236;5.178;2023-05-23T06:44:39;10.90;;;3.83;;
58974;SDS011;44751;52.236;5.178;2023-05-23T06:47:06;14.45;;;4.22;;
58974;SDS011;44751;52.236;5.178;2023-05-23T06:49:32;17.42;;;4.13;;
58974;SDS011;44751;52.236;5.178;2023-05-23T06:51:59;10.07;;;3.42;;
58974;SDS011;44751;52.236;5.178;2023-05-23T06:54:25;14.32;;;3.33;;
58974;SDS011;44751;52.236;5.178;2023-05-23T06:56:52;11.35;;;2.78;;
58974;SDS011;44751;52.236;5.178;2023-05-23T06:59:19;12.82;;;2.83;;
58974;SDS011;44751;52.236;5.178;2023-05-23T07:01:47;9.20;;;2.80;;
58974;SDS011;44751;52.236;5.178;2023-05-23T07:04:14;10.75;;;2.67;;
58974;SDS011;44751;52.236;5.178;2023-05-23T07:06:40;9.75;;;2.75;;
58974;SDS011;44751;52.236;5.178;2023-05-23T07:09:07;12.10;;;3.03;;
58974;SDS011;44751;52.236;5.178;2023-05-23T07:11:38;11.27;;;2.42;;
58974;SDS011;44751;52.236;5.178;2023-05-23T07:14:05;13.52;;;3.20;;
58974;SDS011;44751;52.236;5.178;2023-05-23T07:16:32;14.82;;;2.70;;
58974;SDS011;44751;52.236;5.178;2023-05-23T07:19:00;11.52;;;2.67;;
58974;SDS011;44751;52.236;5.178;2023-05-23T07:21:29;10.90;;;2.60;;
58974;SDS011;44751;52.236;5.178;2023-05-23T07:24:04;10.63;;;2.67;;
58974;SDS011;44751;52.236;5.178;2023-05-23T07:26:30;15.85;;;3.05;;
58974;SDS011;44751;52.236;5.178;2023-05-23T07:28:57;12.02;;;2.95;;
58974;SDS011;44751;52.236;5.178;2023-05-23T07:31:26;12.82;;;2.45;;
58974;SDS011;44751;52.236;5.178;2023-05-23T07:33:56;13.95;;;3.42;;
58974;SDS011;44751;52.236;5.178;2023-05-23T07:36:22;12.18;;;2.85;;
58974;SDS011;44751;52.236;5.178;2023-05-23T07:38:51;14.98;;;2.97;;
58974;SDS011;44751;52.236;5.178;2023-05-23T07:41:18;12.10;;;2.72;;
58974;SDS011;44751;52.236;5.178;2023-05-23T07:43:45;10.90;;;2.65;;
58974;SDS011;44751;52.236;5.178;2023-05-23T07:46:14;13.77;;;2.95;;
58974;SDS011;44751;52.236;5.178;2023-05-23T07:48:40;13.55;;;2.92;;
58974;SDS011;44751;52.236;5.178;2023-05-23T07:51:07;13.65;;;3.17;;
58974;SDS011;44751;52.236;5.178;2023-05-23T07:53:33;12.75;;;2.90;;
58974;SDS011;44751;52.236;5.178;2023-05-23T07:56:03;18.95;;;3.42;;
58974;SDS011;44751;52.236;5.178;2023-05-23T07:58:39;15.35;;;3.03;;
58974;SDS011;44751;52.236;5.178;2023-05-23T08:01:06;12.32;;;3.00;;
58974;SDS011;44751;52.236;5.178;2023-05-23T08:03:32;13.48;;;3.03;;
58974;SDS011;44751;52.236;5.178;2023-05-23T08:05:59;14.18;;;2.95;;
58974;SDS011;44751;52.236;5.178;2023-05-23T08:08:25;9.13;;;2.88;;
58974;SDS011;44751;52.236;5.178;2023-05-23T08:10:54;15.07;;;3.30;;
58974;SDS011;44751;52.236;5.178;2023-05-23T08:13:21;18.17;;;3.38;;
58974;SDS011;44751;52.236;5.178;2023-05-23T08:15:47;15.32;;;3.58;;
58974;SDS011;44751;52.236;5.178;2023-05-23T08:18:14;13.02;;;3.45;;
58974;SDS011;44751;52.236;5.178;2023-05-23T08:20:45;15.38;;;3.95;;
58974;SDS011;44751;52.236;5.178;2023-05-23T08:23:14;18.58;;;3.70;;
58974;SDS011;44751;52.236;5.178;2023-05-23T08:25:43;13.10;;;3.28;;
58974;SDS011;44751;52.236;5.178;2023-05-23T08:28:09;11.30;;;3.28;;
58974;SDS011;44751;52.236;5.178;2023-05-23T08:30:36;13.98;;;2.92;;
58974;SDS011;44751;52.236;5.178;2023-05-23T08:33:02;13.35;;;2.85;;
58974;SDS011;44751;52.236;5.178;2023-05-23T08:35:33;12.50;;;2.72;;
58974;SDS011;44751;52.236;5.178;2023-05-23T08:38:04;13.23;;;2.90;;
58974;SDS011;44751;52.236;5.178;2023-05-23T08:40:31;12.63;;;3.25;;
58974;SDS011;44751;52.236;5.178;2023-05-23T08:43:01;11.65;;;3.10;;
58974;SDS011;44751;52.236;5.178;2023-05-23T08:45:28;16.55;;;3.67;;
58974;SDS011;44751;52.236;5.178;2023-05-23T08:47:55;12.07;;;2.95;;
58974;SDS011;44751;52.236;5.178;2023-05-23T08:50:27;15.05;;;3.05;;
58974;SDS011;44751;52.236;5.178;2023-05-23T08:52:56;12.63;;;3.25;;
58974;SDS011;44751;52.236;5.178;2023-05-23T08:55:28;13.50;;;3.03;;
58974;SDS011;44751;52.236;5.178;2023-05-23T08:57:58;12.13;;;3.17;;
58974;SDS011;44751;52.236;5.178;2023-05-23T09:00:25;13.77;;;3.30;;
58974;SDS011;44751;52.236;5.178;2023-05-23T09:02:54;14.38;;;3.42;;
58974;SDS011;44751;52.236;5.178;2023-05-23T09:05:25;11.35;;;2.95;;
58974;SDS011;44751;52.236;5.178;2023-05-23T09:07:52;11.50;;;2.90;;
58974;SDS011;44751;52.236;5.178;2023-05-23T09:10:20;11.55;;;2.72;;
58974;SDS011;44751;52.236;5.178;2023-05-23T09:12:47;14.23;;;3.30;;
58974;SDS011;44751;52.236;5.178;2023-05-23T09:15:14;11.25;;;2.75;;
58974;SDS011;44751;52.236;5.178;2023-05-23T09:17:44;12.80;;;3.30;;
58974;SDS011;44751;52.236;5.178;2023-05-23T09:20:11;13.18;;;2.85;;
58974;SDS011;44751;52.236;5.178;2023-05-23T09:22:40;11.48;;;3.00;;
58974;SDS011;44751;52.236;5.178;2023-05-23T09:25:14;13.07;;;3.08;;
58974;SDS011;44751;52.236;5.178;2023-05-23T09:27:41;8.05;;;2.65;;
58974;SDS011;44751;52.236;5.178;2023-05-23T09:30:08;12.00;;;2.55;;
58974;SDS011;44751;52.236;5.178;2023-05-23T09:32:36;8.75;;;2.90;;
58974;SDS011;44751;52.236;5.178;2023-05-23T09:35:08;16.60;;;3.30;;
58974;SDS011;44751;52.236;5.178;2023-05-23T09:37:40;12.35;;;2.85;;
58974;SDS011;44751;52.236;5.178;2023-05-23T09:40:10;16.38;;;3.60;;
58974;SDS011;44751;52.236;5.178;2023-05-23T09:42:42;14.38;;;3.22;;
58974;SDS011;44751;52.236;5.178;2023-05-23T09:45:10;14.45;;;2.70;;
58974;SDS011;44751;52.236;5.178;2023-05-23T09:47:51;13.07;;;2.83;;
58974;SDS011;44751;52.236;5.178;2023-05-23T09:50:18;9.23;;;2.40;;
58974;SDS011;44751;52.236;5.178;2023-05-23T09:52:45;12.18;;;3.17;;
58974;SDS011;44751;52.236;5.178;2023-05-23T09:55:15;12.30;;;2.83;;
58974;SDS011;44751;52.236;5.178;2023-05-23T09:57:42;11.60;;;2.85;;
58974;SDS011;44751;52.236;5.178;2023-05-23T10:00:09;12.48;;;2.58;;
58974;SDS011;44751;52.236;5.178;2023-05-23T10:05:11;12.85;;;3.00;;
58974;SDS011;44751;52.236;5.178;2023-05-23T10:07:48;13.55;;;2.92;;
58974;SDS011;44751;52.236;5.178;2023-05-23T10:10:15;9.77;;;2.67;;
58974;SDS011;44751;52.236;5.178;2023-05-23T10:12:50;8.52;;;2.70;;
58974;SDS011;44751;52.236;5.178;2023-05-23T10:15:21;11.90;;;2.83;;
58974;SDS011;44751;52.236;5.178;2023-05-23T10:20:46;11.35;;;2.92;;
58974;SDS011;44751;52.236;5.178;2023-05-23T10:23:15;7.43;;;2.42;;
58974;SDS011;44751;52.236;5.178;2023-05-23T10:25:42;14.05;;;3.05;;
58974;SDS011;44751;52.236;5.178;2023-05-23T10:28:09;11.63;;;2.90;;
58974;SDS011;44751;52.236;5.178;2023-05-23T10:30:37;15.30;;;3.05;;
58974;SDS011;44751;52.236;5.178;2023-05-23T10:33:03;13.88;;;3.17;;
58974;SDS011;44751;52.236;5.178;2023-05-23T10:38:43;12.50;;;3.17;;
58974;SDS011;44751;52.236;5.178;2023-05-23T10:43:27;10.25;;;2.60;;
58974;SDS011;44751;52.236;5.178;2023-05-23T10:46:03;9.95;;;2.80;;
58974;SDS011;44751;52.236;5.178;2023-05-23T10:51:06;9.90;;;2.70;;
58974;SDS011;44751;52.236;5.178;2023-05-23T10:53:37;9.43;;;2.72;;
58974;SDS011;44751;52.236;5.178;2023-05-23T10:56:05;10.05;;;2.45;;
58974;SDS011;44751;52.236;5.178;2023-05-23T10:58:37;12.43;;;2.63;;
58974;SDS011;44751;52.236;5.178;2023-05-23T11:01:05;10.30;;;2.53;;
58974;SDS011;44751;52.236;5.178;2023-05-23T11:06:03;9.77;;;2.78;;
58974;SDS011;44751;52.236;5.178;2023-05-23T11:08:37;12.32;;;3.03;;
58974;SDS011;44751;52.236;5.178;2023-05-23T11:11:06;11.82;;;2.70;;
58974;SDS011;44751;52.236;5.178;2023-05-23T11:16:31;18.33;;;3.20;;
58974;SDS011;44751;52.236;5.178;2023-05-23T11:24:22;14.25;;;2.90;;
58974;SDS011;44751;52.236;5.178;2023-05-23T11:26:52;13.02;;;2.90;;
58974;SDS011;44751;52.236;5.178;2023-05-23T11:29:24;8.27;;;2.60;;
58974;SDS011;44751;52.236;5.178;2023-05-23T11:31:52;9.75;;;2.50;;
58974;SDS011;44751;52.236;5.178;2023-05-23T11:34:19;11.65;;;2.92;;
58974;SDS011;44751;52.236;5.178;2023-05-23T11:36:46;11.88;;;2.30;;
58974;SDS011;44751;52.236;5.178;2023-05-23T11:39:17;11.52;;;2.38;;
58974;SDS011;44751;52.236;5.178;2023-05-23T11:42:00;8.80;;;2.15;;
58974;SDS011;44751;52.236;5.178;2023-05-23T11:44:28;11.48;;;2.88;;
58974;SDS011;44751;52.236;5.178;2023-05-23T11:47:01;10.68;;;2.10;;
58974;SDS011;44751;52.236;5.178;2023-05-23T11:49:33;12.05;;;2.95;;
58974;SDS011;44751;52.236;5.178;2023-05-23T11:52:02;10.75;;;2.63;;
58974;SDS011;44751;52.236;5.178;2023-05-23T11:54:30;11.48;;;2.28;;
58974;SDS011;44751;52.236;5.178;2023-05-23T11:57:05;10.80;;;2.53;;
58974;SDS011;44751;52.236;5.178;2023-05-23T12:20:13;10.65;;;2.60;;
58974;SDS011;44751;52.236;5.178;2023-05-23T12:22:40;16.40;;;2.92;;
58974;SDS011;44751;52.236;5.178;2023-05-23T12:25:10;12.10;;;2.58;;
58974;SDS011;44751;52.236;5.178;2023-05-23T12:27:38;12.23;;;2.63;;
58974;SDS011;44751;52.236;5.178;2023-05-23T12:30:08;7.30;;;2.25;;
58974;SDS011;44751;52.236;5.178;2023-05-23T12:32:43;9.80;;;2.45;;
58974;SDS011;44751;52.236;5.178;2023-05-23T12:35:15;9.07;;;2.33;;
58974;SDS011;44751;52.236;5.178;2023-05-23T12:37:45;10.50;;;2.35;;
58974;SDS011;44751;52.236;5.178;2023-05-23T12:40:13;9.85;;;2.25;;
58974;SDS011;44751;52.236;5.178;2023-05-23T12:45:18;13.05;;;2.90;;
58974;SDS011;44751;52.236;5.178;2023-05-23T12:47:46;12.10;;;2.95;;
58974;SDS011;44751;52.236;5.178;2023-05-23T12:50:15;9.73;;;2.63;;
58974;SDS011;44751;52.236;5.178;2023-05-23T12:52:42;12.85;;;3.00;;
58974;SDS011;44751;52.236;5.178;2023-05-23T12:55:09;12.68;;;3.00;;
58974;SDS011;44751;52.236;5.178;2023-05-23T12:57:36;11.93;;;2.60;;
58974;SDS011;44751;52.236;5.178;2023-05-23T13:00:03;13.43;;;2.75;;
58974;SDS011;44751;52.236;5.178;2023-05-23T13:02:30;13.60;;;2.75;;
58974;SDS011;44751;52.236;5.178;2023-05-23T13:04:59;10.27;;;2.33;;
58974;SDS011;44751;52.236;5.178;2023-05-23T13:07:26;11.20;;;2.40;;
58974;SDS011;44751;52.236;5.178;2023-05-23T13:09:56;13.13;;;2.50;;
58974;SDS011;44751;52.236;5.178;2023-05-23T13:12:23;7.78;;;2.42;;
58974;SDS011;44751;52.236;5.178;2023-05-23T13:15:07;10.98;;;2.28;;
58974;SDS011;44751;52.236;5.178;2023-05-23T13:17:47;9.65;;;2.60;;
58974;SDS011;44751;52.236;5.178;2023-05-23T13:20:21;10.98;;;2.65;;
58974;SDS011;44751;52.236;5.178;2023-05-23T13:22:58;13.13;;;2.80;;
58974;SDS011;44751;52.236;5.178;2023-05-23T13:25:42;11.98;;;2.47;;
58974;SDS011;44751;52.236;5.178;2023-05-23T13:28:09;11.88;;;2.95;;
58974;SDS011;44751;52.236;5.178;2023-05-23T13:30:39;11.80;;;2.78;;
58974;SDS011;44751;52.236;5.178;2023-05-23T13:33:07;8.10;;;2.10;;
58974;SDS011;44751;52.236;5.178;2023-05-23T13:35:33;12.05;;;2.60;;
58974;SDS011;44751;52.236;5.178;2023-05-23T13:38:00;10.13;;;2.30;;
58974;SDS011;44751;52.236;5.178;2023-05-23T13:40:26;8.30;;;2.13;;
58974;SDS011;44751;52.236;5.178;2023-05-23T13:42:53;11.35;;;2.53;;
58974;SDS011;44751;52.236;5.178;2023-05-23T13:45:20;9.52;;;2.53;;
58974;SDS011;44751;52.236;5.178;2023-05-23T13:47:49;10.85;;;2.65;;
58974;SDS011;44751;52.236;5.178;2023-05-23T13:50:16;9.90;;;2.47;;
58974;SDS011;44751;52.236;5.178;2023-05-23T13:52:43;13.05;;;2.42;;
58974;SDS011;44751;52.236;5.178;2023-05-23T13:55:09;10.40;;;2.30;;
58974;SDS011;44751;52.236;5.178;2023-05-23T13:57:36;12.15;;;2.33;;
58974;SDS011;44751;52.236;5.178;2023-05-23T14:00:06;12.98;;;2.83;;
58974;SDS011;44751;52.236;5.178;2023-05-23T14:02:33;17.23;;;2.95;;
58974;SDS011;44751;52.236;5.178;2023-05-23T14:05:03;9.63;;;2.30;;
58974;SDS011;44751;52.236;5.178;2023-05-23T14:07:32;10.20;;;2.30;;
58974;SDS011;44751;52.236;5.178;2023-05-23T14:10:38;11.98;;;2.42;;
58974;SDS011;44751;52.236;5.178;2023-05-23T14:13:06;10.18;;;2.28;;
58974;SDS011;44751;52.236;5.178;2023-05-23T14:15:42;12.82;;;2.42;;
58974;SDS011;44751;52.236;5.178;2023-05-23T14:18:24;9.73;;;2.28;;
58974;SDS011;44751;52.236;5.178;2023-05-23T14:20:58;9.73;;;2.53;;
58974;SDS011;44751;52.236;5.178;2023-05-23T14:26:06;9.27;;;2.28;;
58974;SDS011;44751;52.236;5.178;2023-05-23T14:31:11;9.05;;;2.42;;
58974;SDS011;44751;52.236;5.178;2023-05-23T15:09:59;8.13;;;2.25;;
58974;SDS011;44751;52.236;5.178;2023-05-23T15:12:31;8.80;;;1.90;;
58974;SDS011;44751;52.236;5.178;2023-05-23T15:15:10;10.73;;;2.30;;
58974;SDS011;44751;52.236;5.178;2023-05-23T15:17:50;8.13;;;2.13;;
58974;SDS011;44751;52.236;5.178;2023-05-23T15:20:45;8.95;;;2.10;;
58974;SDS011;44751;52.236;5.178;2023-05-23T15:23:34;8.15;;;2.20;;
58974;SDS011;44751;52.236;5.178;2023-05-23T15:26:05;8.13;;;1.77;;
58974;SDS011;44751;52.236;5.178;2023-05-23T15:31:37;6.45;;;1.67;;
58974;SDS011;44751;52.236;5.178;2023-05-23T15:34:09;7.93;;;2.15;;
58974;SDS011;44751;52.236;5.178;2023-05-23T15:36:54;7.20;;;2.15;;
58974;SDS011;44751;52.236;5.178;2023-05-23T15:47:13;9.07;;;2.40;;
58974;SDS011;44751;52.236;5.178;2023-05-23T15:49:41;8.90;;;1.90;;
58974;SDS011;44751;52.236;5.178;2023-05-23T18:43:54;8.18;;;2.05;;
58974;SDS011;44751;52.236;5.178;2023-05-23T18:46:21;8.30;;;1.90;;
58974;SDS011;44751;52.236;5.178;2023-05-23T18:48:49;9.60;;;1.95;;
58974;SDS011;44751;52.236;5.178;2023-05-23T18:51:25;8.32;;;1.80;;
58974;SDS011;44751;52.236;5.178;2023-05-23T18:53:52;11.07;;;2.30;;
58974;SDS011;44751;52.236;5.178;2023-05-23T18:56:19;10.63;;;2.30;;
58974;SDS011;44751;52.236;5.178;2023-05-23T18:58:48;12.75;;;2.25;;
58974;SDS011;44751;52.236;5.178;2023-05-23T19:01:18;10.95;;;2.30;;
58974;SDS011;44751;52.236;5.178;2023-05-23T19:03:45;9.45;;;2.15;;
58974;SDS011;44751;52.236;5.178;2023-05-23T19:06:12;12.48;;;2.45;;
58974;SDS011;44751;52.236;5.178;2023-05-23T19:08:42;8.25;;;2.05;;
58974;SDS011;44751;52.236;5.178;2023-05-23T19:11:12;9.55;;;2.22;;
58974;SDS011;44751;52.236;5.178;2023-05-23T19:13:42;10.95;;;1.80;;
